KPRC/PRC METAR and TAF weather

Enter ICAO airport designator
Station Type Date Time Source
KPRC METAR 2020/01/22 20:53 UTC NOAA

KPRC 222053Z 32008KT 10SM CLR 12/M01 A3013 RMK AO2 SLP172 T01171006 58014


Station Type Date Time Source
KPRC Decoded METAR 2020/01/22 20:53 UTC NOAA

PRESCOTT LOVE FIELD, AZ, United States (KPRC) 34-39N 112-25W 1524M
Jan 22, 2020 - 03:53 PM EST / 2020.01.22 2053 UTC
Wind: from the NW (320 degrees) at 9 MPH (8 KT):0
Visibility: 10 mile(s):0
Sky conditions: clear
Temperature: 53.1 F (11.7 C)
Dew Point: 30.9 F (-0.6 C)
Relative Humidity: 42%
Pressure (altimeter): 30.13 in. Hg (1020 hPa)
Pressure tendency: 0.04 inches (1.4 hPa) lower than three hours ago
ob: KPRC 222053Z 32008KT 10SM CLR 12/M01 A3013 RMK AO2 SLP172 T01171006 58014
cycle: 21

Station Type Date Time Source
KPRC TAF 2020/01/22 18:28 UTC NOAA

TAF KPRC 221725Z 2218/2318 VRB06KT P6SM BKN250

Example: see airport list